Time;durP1;ratioP1;P1;durP2;ratioP2;P2;SDS_P1;SDS_P2;PMS_P1;PMS_P2;Temp;Humidity;BMP_temperature;BMP_pressure;BME280_temperature;BME280_humidity;BME280_pressure;Samples;Min_cycle;Max_cycle;Signal;HPM_P1;HPM_P2
2021/07/11 00:00:50;;;;;;;1999.90;999.90;;;24.20;70.00;;;;;;5031315;28;20037;-85
2021/07/11 00:03:16;;;;;;;1999.90;999.90;;;24.10;70.10;;;;;;5031951;28;20083;-85
2021/07/11 00:05:41;;;;;;;1999.90;999.90;;;24.10;70.30;;;;;;5030600;28;20026;-84
2021/07/11 00:08:07;;;;;;;1999.90;999.90;;;24.00;70.50;;;;;;5033030;28;20113;-84
2021/07/11 00:10:33;;;;;;;1999.90;999.90;;;24.00;70.80;;;;;;5034571;28;20025;-84
2021/07/11 00:12:59;;;;;;;1999.90;999.90;;;23.90;71.00;;;;;;5028649;28;20057;-84
2021/07/11 00:15:26;;;;;;;1999.90;999.90;;;23.90;71.30;;;;;;5033617;28;20390;-83
2021/07/11 00:17:56;;;;;;;1999.90;999.90;;;23.80;71.40;;;;;;5036010;28;20387;-83
2021/07/11 00:20:23;;;;;;;1999.90;999.90;;;23.80;71.60;;;;;;5038793;28;20064;-84
2021/07/11 00:22:49;;;;;;;1999.90;999.90;;;23.70;72.00;;;;;;5029614;28;20045;-84
2021/07/11 00:25:15;;;;;;;1999.90;999.90;;;23.70;72.40;;;;;;5028521;28;20029;-84
2021/07/11 00:27:43;;;;;;;1999.90;999.90;;;23.60;72.50;;;;;;5046395;28;20021;-83
2021/07/11 00:30:10;;;;;;;1999.90;999.90;;;23.60;72.70;;;;;;5032573;28;20022;-84
2021/07/11 00:32:37;;;;;;;1999.90;999.90;;;23.60;73.00;;;;;;5029091;28;20084;-84
2021/07/11 00:35:03;;;;;;;1999.90;999.90;;;23.50;73.20;;;;;;5041235;28;20104;-84
2021/07/11 00:37:29;;;;;;;1999.90;999.90;;;23.60;73.40;;;;;;5040518;28;20025;-84
2021/07/11 00:39:54;;;;;;;1999.90;999.90;;;23.50;73.60;;;;;;5038454;28;20075;-85
2021/07/11 00:42:20;;;;;;;1999.90;999.90;;;23.50;73.80;;;;;;5027089;28;20382;-85
2021/07/11 00:44:46;;;;;;;1999.90;999.90;;;23.50;73.90;;;;;;5033820;28;20064;-85
2021/07/11 00:47:12;;;;;;;1999.90;999.90;;;23.40;74.10;;;;;;5034798;28;20532;-84
2021/07/11 00:49:44;;;;;;;1999.90;999.90;;;23.40;74.20;;;;;;5030191;28;20036;-84
2021/07/11 00:52:11;;;;;;;;;;;23.40;74.30;;;;;;5032924;28;20063;-84
2021/07/11 00:54:36;;;;;;;1999.90;999.90;;;23.20;75.80;;;;;;5034695;28;19913;-84
2021/07/11 00:57:03;;;;;;;1999.90;999.90;;;23.20;74.40;;;;;;5035909;28;20383;-84
2021/07/11 00:59:29;;;;;;;1999.90;999.90;;;23.20;74.70;;;;;;5047345;28;20039;-84
2021/07/11 01:02:06;;;;;;;1999.90;999.90;;;23.20;74.90;;;;;;5028366;28;20471;-84
2021/07/11 01:04:51;;;;;;;1999.90;999.90;;;23.20;75.20;;;;;;5033405;28;20414;-84
2021/07/11 01:07:31;;;;;;;1999.90;999.90;;;23.10;75.20;;;;;;5027372;28;20111;-84
2021/07/11 01:10:03;;;;;;;1999.90;999.90;;;23.10;75.50;;;;;;5045353;28;20356;-84
2021/07/11 01:12:31;;;;;;;1999.90;999.90;;;23.10;75.40;;;;;;5036378;28;20025;-80
2021/07/11 01:15:00;;;;;;;1999.90;999.90;;;23.10;75.40;;;;;;5046224;28;20033;-82
2021/07/11 01:17:27;;;;;;;1999.90;999.90;;;23.10;75.60;;;;;;5034005;28;20075;-83
2021/07/11 01:20:14;;;;;;;1999.90;999.90;;;23.00;75.80;;;;;;5029906;28;20017;-80
2021/07/11 01:22:46;;;;;;;1999.90;999.90;;;23.00;76.40;;;;;;5024960;28;20018;-80
2021/07/11 01:25:33;;;;;;;1999.90;999.90;;;22.90;76.00;;;;;;5026701;28;20108;-81
2021/07/11 01:27:59;;;;;;;1999.90;999.90;;;22.90;76.20;;;;;;5055908;28;20100;-83
2021/07/11 01:30:25;;;;;;;1999.90;999.90;;;22.90;76.90;;;;;;5066847;28;20115;-85
2021/07/11 01:32:53;;;;;;;1999.90;999.90;;;22.90;76.40;;;;;;5046144;28;20089;-85
2021/07/11 01:35:20;;;;;;;1999.90;999.90;;;22.90;76.40;;;;;;5047275;28;20034;-85
2021/07/11 01:37:48;;;;;;;1999.90;999.90;;;22.90;76.60;;;;;;5044441;28;20025;-86
2021/07/11 01:40:19;;;;;;;1999.90;999.90;;;22.90;76.90;;;;;;5049909;28;20021;-85
2021/07/11 01:42:46;;;;;;;1999.90;999.90;;;22.80;76.70;;;;;;5049628;28;20029;-85
2021/07/11 01:45:16;;;;;;;1999.90;999.90;;;22.80;76.80;;;;;;5047558;28;20037;-87
2021/07/11 01:47:43;;;;;;;1999.90;999.90;;;22.80;77.00;;;;;;5039285;28;20034;-85
2021/07/11 01:50:11;;;;;;;1999.90;999.90;;;22.80;77.20;;;;;;5044989;28;20041;-83
2021/07/11 01:52:37;;;;;;;1999.90;999.90;;;22.80;77.50;;;;;;5047011;28;20045;-85
2021/07/11 01:55:07;;;;;;;1999.90;999.90;;;22.80;77.80;;;;;;5043267;28;20041;-84
2021/07/11 01:57:34;;;;;;;1999.90;999.90;;;22.80;78.20;;;;;;5048982;28;20383;-85
2021/07/11 02:00:00;;;;;;;1999.90;999.90;;;22.80;78.60;;;;;;5048228;28;20139;-85
2021/07/11 02:02:26;;;;;;;1999.90;999.90;;;22.90;78.70;;;;;;5043512;28;20511;-85
2021/07/11 02:04:52;;;;;;;1999.90;999.90;;;22.90;78.70;;;;;;5034903;28;20036;-86
2021/07/11 02:07:18;;;;;;;1999.90;999.90;;;22.90;78.50;;;;;;5037904;28;20033;-84
2021/07/11 02:09:44;;;;;;;1999.90;999.90;;;23.00;78.50;;;;;;5033363;28;20061;-86
2021/07/11 02:12:11;;;;;;;1999.90;999.90;;;23.00;78.60;;;;;;5050219;28;20030;-86
2021/07/11 02:14:41;;;;;;;1999.90;999.90;;;23.00;78.30;;;;;;5046719;28;20033;-86
2021/07/11 02:17:12;;;;;;;1999.90;999.90;;;23.00;78.40;;;;;;5045430;28;20047;-85
2021/07/11 02:19:40;;;;;;;1999.90;999.90;;;23.00;78.70;;;;;;5066840;28;20088;-84
2021/07/11 02:22:13;;;;;;;1999.90;999.90;;;23.10;78.90;;;;;;5038708;28;20018;-84
2021/07/11 02:24:42;;;;;;;1999.90;999.90;;;23.10;78.90;;;;;;5050740;28;20049;-85
2021/07/11 02:27:09;;;;;;;1999.90;999.90;;;23.10;78.80;;;;;;5047264;28;20026;-85
2021/07/11 02:29:39;;;;;;;1999.90;999.90;;;23.20;78.80;;;;;;5041093;28;20025;-85
2021/07/11 02:32:10;;;;;;;1999.90;999.90;;;23.20;78.70;;;;;;5049053;28;20077;-84
2021/07/11 02:34:40;;;;;;;1999.90;999.90;;;23.20;78.50;;;;;;5048929;28;20049;-84
2021/07/11 02:37:09;;;;;;;1999.90;999.90;;;23.20;78.30;;;;;;5046872;28;20485;-85
2021/07/11 02:39:38;;;;;;;1999.90;999.90;;;23.20;78.00;;;;;;5050999;28;20029;-85
2021/07/11 02:42:09;;;;;;;1999.90;999.90;;;23.30;77.60;;;;;;5044170;28;20029;-85
2021/07/11 02:44:37;;;;;;;1999.90;999.90;;;23.30;77.20;;;;;;5054931;28;20411;-85
2021/07/11 02:47:20;;;;;;;1999.90;999.90;;;23.40;77.00;;;;;;5042251;28;20028;-83
2021/07/11 02:49:50;;;;;;;1999.90;999.90;;;23.40;76.50;;;;;;5050448;28;20538;-84
2021/07/11 02:52:17;;;;;;;1999.90;999.90;;;23.40;76.20;;;;;;5065383;28;20415;-84
2021/07/11 02:55:02;;;;;;;1999.90;999.90;;;23.50;76.10;;;;;;5056890;28;20044;-84
2021/07/11 02:57:30;;;;;;;1999.90;999.90;;;23.50;75.70;;;;;;5044777;28;20032;-86
2021/07/11 03:00:04;;;;;;;1999.90;999.90;;;23.60;75.50;;;;;;5039100;28;20056;-85
2021/07/11 03:02:32;;;;;;;1999.90;999.90;;;23.60;75.10;;;;;;5036980;28;20072;-84
2021/07/11 03:04:58;;;;;;;1999.90;999.90;;;23.70;74.80;;;;;;5040165;28;20025;-85
2021/07/11 03:07:24;;;;;;;1999.90;999.90;;;23.80;74.30;;;;;;5050804;28;20387;-82
2021/07/11 03:09:50;;;;;;;1999.90;999.90;;;23.80;74.00;;;;;;5043619;28;20034;-83
2021/07/11 03:12:18;;;;;;;1999.90;999.90;;;23.80;73.60;;;;;;5045158;28;20048;-83
2021/07/11 03:14:47;;;;;;;1999.90;999.90;;;23.90;72.90;;;;;;5043672;28;20037;-84
2021/07/11 03:17:25;;;;;;;1999.90;999.90;;;24.00;72.50;;;;;;5070485;28;20035;-83
2021/07/11 03:19:53;;;;;;;1999.90;999.90;;;24.10;72.20;;;;;;5062655;28;20026;-85
2021/07/11 03:22:24;;;;;;;1999.90;999.90;;;24.10;72.00;;;;;;5055140;28;20017;-84
2021/07/11 03:24:55;;;;;;;1999.90;999.90;;;24.20;71.20;;;;;;5056613;28;20028;-82
2021/07/11 03:27:22;;;;;;;1999.90;999.90;;;24.20;70.90;;;;;;5040677;28;20040;-85
2021/07/11 03:30:01;;;;;;;1999.90;999.90;;;24.30;70.50;;;;;;5050253;28;20037;-85
2021/07/11 03:32:48;;;;;;;1999.90;999.90;;;24.40;70.00;;;;;;5049125;28;20051;-85
2021/07/11 03:35:16;;;;;;;1999.90;999.90;;;24.40;69.80;;;;;;5060555;28;20061;-85
2021/07/11 03:37:47;;;;;;;1999.90;999.90;;;24.50;69.40;;;;;;5054932;28;20021;-86
2021/07/11 03:40:18;;;;;;;1999.90;999.90;;;24.60;69.10;;;;;;5047514;28;20030;-84
2021/07/11 03:42:46;;;;;;;1999.90;999.90;;;24.70;68.40;;;;;;5057958;28;20048;-86
2021/07/11 03:45:14;;;;;;;1999.90;999.90;;;24.70;68.20;;;;;;5055515;28;20031;-85
2021/07/11 03:47:56;;;;;;;1999.90;999.90;;;24.80;68.20;;;;;;5054672;28;20025;-85
2021/07/11 03:50:26;;;;;;;;;;;24.90;68.00;;;;;;5057226;28;20047;-85
2021/07/11 03:53:02;;;;;;;1999.90;999.90;;;24.90;67.50;;;;;;5058017;28;19916;-84
2021/07/11 03:55:34;;;;;;;1999.90;999.90;;;24.90;67.70;;;;;;5057351;28;20087;-86
2021/07/11 03:58:12;;;;;;;1999.90;999.90;;;25.00;67.40;;;;;;5049598;28;20032;-85
2021/07/11 04:00:40;;;;;;;1999.90;999.90;;;25.10;67.00;;;;;;5050998;28;20029;-87
2021/07/11 04:03:09;;;;;;;1999.90;999.90;;;25.20;66.50;;;;;;5043165;28;20021;-85
2021/07/11 04:05:37;;;;;;;1999.90;999.90;;;25.30;66.30;;;;;;5049823;28;20049;-86
2021/07/11 04:08:10;;;;;;;1999.90;999.90;;;25.40;65.60;;;;;;5050086;28;20018;-85
2021/07/11 04:10:38;;;;;;;1999.90;999.90;;;25.50;65.50;;;;;;5044215;28;20055;-85
2021/07/11 04:13:04;;;;;;;1999.90;999.90;;;25.50;65.60;;;;;;5041383;28;20026;-85
2021/07/11 04:15:33;;;;;;;1999.90;999.90;;;25.60;65.20;;;;;;5040796;28;20030;-85
2021/07/11 04:18:03;;;;;;;1999.90;999.90;;;25.70;65.10;;;;;;5042874;28;20029;-84
2021/07/11 04:20:31;;;;;;;1999.90;999.90;;;25.80;65.00;;;;;;5033770;28;20029;-84
2021/07/11 04:22:59;;;;;;;1999.90;999.90;;;25.80;65.10;;;;;;5040651;28;20025;-84
2021/07/11 04:25:30;;;;;;;1999.90;999.90;;;25.90;65.20;;;;;;5030382;28;20167;-84
2021/07/11 04:27:57;;;;;;;1999.90;999.90;;;26.00;65.10;;;;;;5027284;28;20052;-84
2021/07/11 04:30:23;;;;;;;1999.90;999.90;;;26.10;65.10;;;;;;5029462;28;20033;-83
2021/07/11 04:32:49;;;;;;;1999.90;999.90;;;26.10;64.90;;;;;;5023624;28;20034;-82
2021/07/11 04:35:15;;;;;;;1999.90;999.90;;;26.20;64.70;;;;;;5034568;28;20029;-84
2021/07/11 04:37:41;;;;;;;1999.90;999.90;;;26.30;63.30;;;;;;5034505;28;20029;-83
2021/07/11 04:40:07;;;;;;;1999.90;999.90;;;26.40;62.50;;;;;;5035603;28;20025;-83
2021/07/11 04:42:33;;;;;;;1999.90;999.90;;;26.40;61.80;;;;;;5041406;28;20105;-82
2021/07/11 04:45:02;;;;;;;1999.90;999.90;;;26.40;61.70;;;;;;5040060;28;20144;-82
2021/07/11 04:47:28;;;;;;;1999.90;999.90;;;26.50;62.00;;;;;;5043644;28;20490;-81
2021/07/11 04:49:54;;;;;;;1999.90;999.90;;;26.50;62.00;;;;;;5049930;28;20056;-83
2021/07/11 04:52:20;;;;;;;1999.90;999.90;;;26.50;62.50;;;;;;5041334;28;20024;-81
2021/07/11 04:54:47;;;;;;;1999.90;999.90;;;26.60;62.10;;;;;;5041157;28;20033;-82
2021/07/11 04:57:13;;;;;;;1999.90;999.90;;;26.70;62.20;;;;;;5037609;28;20134;-82
2021/07/11 04:59:38;;;;;;;1999.90;999.90;;;26.70;61.80;;;;;;5038985;28;20049;-84
2021/07/11 05:02:04;;;;;;;1999.90;999.90;;;26.80;62.10;;;;;;5029949;28;20072;-83
2021/07/11 05:04:30;;;;;;;1999.90;999.90;;;26.80;62.30;;;;;;5035454;28;20030;-84
2021/07/11 05:06:56;;;;;;;1999.90;999.90;;;26.90;62.20;;;;;;5038910;28;20025;-83
2021/07/11 05:09:22;;;;;;;1999.90;999.90;;;26.90;62.20;;;;;;5037449;28;20030;-85
2021/07/11 05:11:48;;;;;;;1999.90;999.90;;;27.00;62.20;;;;;;5027419;28;20033;-85
2021/07/11 05:14:13;;;;;;;1999.90;999.90;;;27.10;62.60;;;;;;5030590;28;20037;-84
2021/07/11 05:16:39;;;;;;;1999.90;999.90;;;27.10;62.70;;;;;;5046689;28;20052;-82
2021/07/11 05:19:05;;;;;;;1999.90;999.90;;;27.20;62.70;;;;;;5032307;28;20029;-84
2021/07/11 05:21:31;;;;;;;1999.90;999.90;;;27.20;62.70;;;;;;5036323;28;20048;-84
2021/07/11 05:23:57;;;;;;;1999.90;999.90;;;27.30;62.50;;;;;;5047816;28;20465;-84
2021/07/11 05:26:24;;;;;;;1999.90;999.90;;;27.40;62.40;;;;;;5039476;28;20026;-84
2021/07/11 05:28:50;;;;;;;1999.90;999.90;;;27.40;62.30;;;;;;5027818;28;20058;-85
2021/07/11 05:31:16;;;;;;;1999.90;999.90;;;27.50;61.70;;;;;;5026798;28;20044;-85
2021/07/11 05:33:42;;;;;;;1999.90;999.90;;;27.60;61.30;;;;;;5028087;28;20112;-86
2021/07/11 05:36:09;;;;;;;1999.90;999.90;;;27.60;61.10;;;;;;5027923;28;20499;-85
2021/07/11 05:38:36;;;;;;;1999.90;999.90;;;27.60;60.80;;;;;;5028503;28;20036;-82
2021/07/11 05:41:02;;;;;;;1999.90;999.90;;;27.70;60.60;;;;;;5028561;28;20029;-82
2021/07/11 05:43:28;;;;;;;1999.90;999.90;;;27.80;59.90;;;;;;5045350;28;20026;-83
2021/07/11 05:45:54;;;;;;;1999.90;999.90;;;27.80;59.90;;;;;;5029587;28;20029;-83
2021/07/11 05:48:20;;;;;;;1999.90;999.90;;;27.80;58.80;;;;;;5025178;28;20061;-83
2021/07/11 05:50:45;;;;;;;1999.90;999.90;;;27.80;59.00;;;;;;5031137;28;20372;-84
2021/07/11 05:53:12;;;;;;;1999.90;999.90;;;27.90;59.30;;;;;;5030727;28;20164;-83
2021/07/11 05:55:39;;;;;;;1999.90;999.90;;;27.90;59.60;;;;;;5032949;28;20030;-84
2021/07/11 05:58:05;;;;;;;1999.90;999.90;;;28.00;60.10;;;;;;5027312;28;20041;-84
2021/07/11 06:00:31;;;;;;;1999.90;999.90;;;28.00;59.10;;;;;;5024705;28;20014;-84
2021/07/11 06:02:57;;;;;;;1999.90;999.90;;;28.00;59.00;;;;;;5032181;28;20092;-85
2021/07/11 06:05:23;;;;;;;1999.90;999.90;;;28.00;59.10;;;;;;5025886;28;20053;-84
2021/07/11 06:07:48;;;;;;;1999.90;999.90;;;28.10;59.10;;;;;;5027590;28;20033;-84
2021/07/11 06:10:15;;;;;;;1999.90;999.90;;;28.10;59.10;;;;;;5032880;28;20151;-83
2021/07/11 06:12:41;;;;;;;1999.90;999.90;;;28.20;59.20;;;;;;5032698;28;20491;-84
2021/07/11 06:15:10;;;;;;;1999.90;999.90;;;28.20;59.00;;;;;;5023859;28;20026;-84
2021/07/11 06:17:36;;;;;;;1999.90;999.90;;;28.30;59.30;;;;;;5032423;28;20538;-84
2021/07/11 06:20:06;;;;;;;1999.90;999.90;;;28.30;59.00;;;;;;5027596;28;20021;-84
2021/07/11 06:22:31;;;;;;;1999.90;999.90;;;28.40;58.90;;;;;;5030080;28;20097;-84
2021/07/11 06:24:57;;;;;;;1999.90;999.90;;;28.40;58.50;;;;;;5033640;28;20184;-84
2021/07/11 06:27:23;;;;;;;1999.90;999.90;;;28.40;58.20;;;;;;5041377;28;20036;-84
2021/07/11 06:29:49;;;;;;;1999.90;999.90;;;28.50;58.00;;;;;;5030600;28;20043;-84
2021/07/11 06:32:14;;;;;;;1999.90;999.90;;;28.50;57.60;;;;;;5031624;28;20122;-84
2021/07/11 06:34:40;;;;;;;1999.90;999.90;;;28.50;57.30;;;;;;5032364;28;20021;-83
2021/07/11 06:37:06;;;;;;;1999.90;999.90;;;28.50;57.50;;;;;;5040789;28;20033;-83
2021/07/11 06:39:32;;;;;;;1999.90;999.90;;;28.60;57.60;;;;;;5024211;28;20099;-85
2021/07/11 06:41:58;;;;;;;1999.90;999.90;;;28.70;57.90;;;;;;5025622;28;20040;-86
2021/07/11 06:44:23;;;;;;;1999.90;999.90;;;28.70;57.60;;;;;;5033888;28;20021;-87
2021/07/11 06:46:50;;;;;;;1999.90;999.90;;;28.80;57.70;;;;;;5026104;28;20026;-85
2021/07/11 06:49:16;;;;;;;1999.90;999.90;;;28.90;57.60;;;;;;5032569;28;20056;-85
2021/07/11 06:51:41;;;;;;;1999.90;999.90;;;29.00;57.40;;;;;;5034700;28;20047;-84
2021/07/11 06:54:07;;;;;;;1999.90;999.90;;;29.10;57.50;;;;;;5029716;28;20080;-85
2021/07/11 06:56:33;;;;;;;1999.90;999.90;;;29.10;56.90;;;;;;5033761;28;20479;-85
2021/07/11 06:58:58;;;;;;;1999.90;999.90;;;29.20;56.70;;;;;;5035326;28;20051;-85
2021/07/11 07:01:24;;;;;;;1999.90;999.90;;;29.20;56.30;;;;;;5029415;28;20681;-86
2021/07/11 07:03:50;;;;;;;1999.90;999.90;;;29.30;56.40;;;;;;5033813;28;20084;-85
2021/07/11 07:06:15;;;;;;;1999.90;999.90;;;29.40;56.30;;;;;;5027279;28;20034;-85
2021/07/11 07:08:41;;;;;;;1999.90;999.90;;;29.40;55.90;;;;;;5034364;28;20072;-85
2021/07/11 07:11:10;;;;;;;1999.90;999.90;;;29.50;55.80;;;;;;5031804;28;20037;-86
2021/07/11 07:13:36;;;;;;;1999.90;999.90;;;29.60;55.50;;;;;;5048135;28;20061;-85
2021/07/11 07:16:01;;;;;;;1999.90;999.90;;;29.60;55.10;;;;;;5041917;28;20080;-86
2021/07/11 07:18:27;;;;;;;1999.90;999.90;;;29.60;54.80;;;;;;5031385;28;20037;-85
2021/07/11 07:20:53;;;;;;;1999.90;999.90;;;29.60;55.00;;;;;;5034420;28;20034;-86
2021/07/11 07:23:18;;;;;;;1999.90;999.90;;;29.70;54.90;;;;;;5042033;28;20060;-86
2021/07/11 07:25:44;;;;;;;1999.90;999.90;;;29.90;54.90;;;;;;5033872;28;20044;-85
2021/07/11 07:28:11;;;;;;;1999.90;999.90;;;29.90;54.90;;;;;;5038891;28;20022;-86
2021/07/11 07:30:38;;;;;;;1999.90;999.90;;;30.00;54.50;;;;;;5034886;28;20040;-85
2021/07/11 07:33:04;;;;;;;1999.90;999.90;;;30.00;54.10;;;;;;5035092;28;20026;-85
2021/07/11 07:35:29;;;;;;;1999.90;999.90;;;30.10;54.00;;;;;;5032530;28;20020;-85
2021/07/11 07:37:55;;;;;;;1999.90;999.90;;;30.20;53.90;;;;;;5039896;28;20116;-86
2021/07/11 07:40:21;;;;;;;1999.90;999.90;;;30.20;53.70;;;;;;5038462;28;20022;-86
2021/07/11 07:42:48;;;;;;;1999.90;999.90;;;30.30;53.50;;;;;;5029890;28;20115;-85
2021/07/11 07:45:15;;;;;;;1999.90;999.90;;;30.30;53.50;;;;;;5036883;28;20021;-84
2021/07/11 07:47:41;;;;;;;1999.90;999.90;;;30.40;53.90;;;;;;5033343;28;20021;-85
2021/07/11 07:50:10;;;;;;;1999.90;999.90;;;30.50;54.00;;;;;;5036810;28;20118;-86
2021/07/11 07:52:37;;;;;;;1999.90;999.90;;;30.60;54.10;;;;;;5050357;28;20103;-85
2021/07/11 07:55:04;;;;;;;1999.90;999.90;;;30.70;53.70;;;;;;5039069;28;20079;-84
2021/07/11 07:57:30;;;;;;;1999.90;999.90;;;30.80;53.40;;;;;;5048282;28;20452;-86
2021/07/11 07:59:56;;;;;;;1999.90;999.90;;;30.90;53.40;;;;;;5039031;28;20056;-85
2021/07/11 08:02:24;;;;;;;1999.90;999.90;;;30.90;53.20;;;;;;5036128;28;20087;-86
2021/07/11 08:04:50;;;;;;;1999.90;999.90;;;31.10;52.80;;;;;;5035037;28;20429;-85
2021/07/11 08:07:17;;;;;;;1999.90;999.90;;;31.10;53.10;;;;;;5034379;28;20080;-86
2021/07/11 08:09:42;;;;;;;1999.90;999.90;;;31.20;52.70;;;;;;5034207;28;20022;-85
2021/07/11 08:12:08;;;;;;;1999.90;999.90;;;31.20;52.60;;;;;;5032656;28;20034;-85
2021/07/11 08:14:34;;;;;;;1999.90;999.90;;;31.20;52.20;;;;;;5035771;28;20104;-86
2021/07/11 08:17:00;;;;;;;1999.90;999.90;;;31.30;52.50;;;;;;5029292;28;20103;-85
2021/07/11 08:19:26;;;;;;;1999.90;999.90;;;31.30;52.40;;;;;;5033261;28;20064;-85
2021/07/11 08:21:53;;;;;;;1999.90;999.90;;;31.40;52.20;;;;;;5031606;28;20043;-86
2021/07/11 08:24:22;;;;;;;1999.90;999.90;;;31.40;51.70;;;;;;5044095;28;20093;-86
2021/07/11 08:26:49;;;;;;;1999.90;999.90;;;31.40;51.30;;;;;;5035660;28;20025;-86
2021/07/11 08:29:15;;;;;;;1999.90;999.90;;;31.50;51.30;;;;;;5030686;28;20030;-84
2021/07/11 08:31:41;;;;;;;1999.90;999.90;;;31.50;51.30;;;;;;5035390;28;20022;-86
2021/07/11 08:34:06;;;;;;;1999.90;999.90;;;31.60;51.50;;;;;;5037576;28;20087;-86
2021/07/11 08:36:32;;;;;;;1999.90;999.90;;;31.80;51.50;;;;;;5027703;28;20088;-84
2021/07/11 08:38:59;;;;;;;1999.90;999.90;;;31.80;51.20;;;;;;5033185;28;20025;-86
2021/07/11 08:41:25;;;;;;;1999.90;999.90;;;31.90;50.70;;;;;;5033737;28;20558;-88
2021/07/11 08:43:52;;;;;;;1999.90;999.90;;;32.00;50.40;;;;;;5029443;28;20048;-86
2021/07/11 08:46:19;;;;;;;1999.90;999.90;;;32.10;50.00;;;;;;5032283;28;20029;-86
2021/07/11 08:48:47;;;;;;;1999.90;999.90;;;32.10;50.30;;;;;;5038547;28;20032;-86
2021/07/11 08:51:13;;;;;;;1999.90;999.90;;;32.20;49.20;;;;;;5041999;28;20032;-85
2021/07/11 08:53:40;;;;;;;1999.90;999.90;;;32.30;48.90;;;;;;5038913;28;20045;-85
2021/07/11 08:56:16;;;;;;;1999.90;999.90;;;32.40;48.80;;;;;;5038465;28;20482;-86
2021/07/11 08:58:52;;;;;;;1999.90;999.90;;;32.40;45.90;;;;;;5033745;28;20424;-86
2021/07/11 09:01:24;;;;;;;1999.90;999.90;;;32.40;47.40;;;;;;5027136;28;20863;-85
2021/07/11 09:04:11;;;;;;;1999.90;999.90;;;32.50;47.10;;;;;;5034993;28;20056;-85
2021/07/11 09:06:57;;;;;;;1999.90;999.90;;;32.50;46.70;;;;;;5022042;28;20498;-86
2021/07/11 09:09:37;;;;;;;1999.90;999.90;;;32.60;47.40;;;;;;5027998;28;20091;-86
2021/07/11 09:12:09;;;;;;;1999.90;999.90;;;32.70;45.20;;;;;;5033923;28;20030;-86
2021/07/11 09:14:38;;;;;;;1999.90;999.90;;;32.80;46.70;;;;;;5030598;28;20021;-87
2021/07/11 09:17:05;;;;;;;1999.90;999.90;;;32.80;46.20;;;;;;5035403;28;20475;-85
2021/07/11 09:19:34;;;;;;;1999.90;999.90;;;32.80;46.00;;;;;;5037223;28;20497;-86
2021/07/11 09:22:15;;;;;;;1999.90;999.90;;;32.80;45.90;;;;;;5048225;28;20021;-86
2021/07/11 09:24:54;;;;;;;1999.90;999.90;;;32.90;45.20;;;;;;5035848;28;20021;-86
2021/07/11 09:27:21;;;;;;;1999.90;999.90;;;33.00;44.50;;;;;;5032910;28;20025;-87
2021/07/11 09:29:47;;;;;;;1999.90;999.90;;;33.10;45.20;;;;;;5023311;28;20034;-86
2021/07/11 09:32:31;;;;;;;1999.90;999.90;;;33.20;45.00;;;;;;5031039;28;20043;-84
2021/07/11 09:35:07;;;;;;;1999.90;999.90;;;33.30;44.70;;;;;;5024376;28;20060;-86
2021/07/11 09:37:37;;;;;;;1999.90;999.90;;;33.30;43.10;;;;;;5044313;28;20061;-85
2021/07/11 09:40:04;;;;;;;1999.90;999.90;;;33.40;44.20;;;;;;5038184;28;20113;-86
2021/07/11 09:42:33;;;;;;;1999.90;999.90;;;33.40;44.40;;;;;;5032344;28;20060;-86
2021/07/11 09:45:01;;;;;;;1999.90;999.90;;;33.50;44.50;;;;;;5035003;28;20371;-86
2021/07/11 09:47:28;;;;;;;1999.90;999.90;;;33.60;44.20;;;;;;5027501;28;20071;-87
2021/07/11 09:49:59;;;;;;;1999.90;999.90;;;33.60;43.90;;;;;;5027749;28;20022;-86
2021/07/11 09:52:25;;;;;;;1999.90;999.90;;;33.60;43.80;;;;;;5032515;28;20572;-85
2021/07/11 09:55:00;;;;;;;1999.90;999.90;;;33.60;43.50;;;;;;5033241;28;20045;-85
2021/07/11 09:57:34;;;;;;;1999.90;999.90;;;33.70;43.00;;;;;;5028894;28;20033;-86
2021/07/11 10:00:09;;;;;;;1999.90;999.90;;;33.70;43.40;;;;;;5029929;28;20566;-86
2021/07/11 10:02:35;;;;;;;1999.90;999.90;;;33.70;43.80;;;;;;5047448;28;20060;-85
2021/07/11 10:05:01;;;;;;;1999.90;999.90;;;33.80;43.00;;;;;;5030388;28;20026;-85
2021/07/11 10:07:27;;;;;;;1999.90;999.90;;;33.90;42.80;;;;;;5030658;28;20037;-85
2021/07/11 10:09:53;;;;;;;1999.90;999.90;;;33.90;42.80;;;;;;5030413;28;20032;-86
2021/07/11 10:12:19;;;;;;;1999.90;999.90;;;33.90;42.40;;;;;;5030374;28;20026;-87
2021/07/11 10:14:45;;;;;;;1999.90;999.90;;;33.90;42.30;;;;;;5035337;28;20078;-85
2021/07/11 10:17:13;;;;;;;1999.90;999.90;;;33.80;42.40;;;;;;5031455;28;20027;-86
2021/07/11 10:19:39;;;;;;;1999.90;999.90;;;33.80;42.50;;;;;;5034237;28;20025;-85
2021/07/11 10:22:13;;;;;;;1999.90;999.90;;;33.70;42.70;;;;;;5033234;28;20021;-86
2021/07/11 10:24:41;;;;;;;1999.90;999.90;;;33.80;42.10;;;;;;5032359;28;20025;-86
2021/07/11 10:27:23;;;;;;;1999.90;999.90;;;33.90;42.80;;;;;;5036088;28;20033;-85
2021/07/11 10:29:51;;;;;;;1999.90;999.90;;;33.90;42.10;;;;;;5034212;28;20048;-85
2021/07/11 10:32:31;;;;;;;1999.90;999.90;;;34.00;42.70;;;;;;5041902;28;20415;-86
2021/07/11 10:35:29;;;;;;;1999.90;999.90;;;34.10;42.20;;;;;;5031608;28;20056;-86
2021/07/11 10:37:55;;;;;;;1999.90;999.90;;;34.20;43.00;;;;;;5006194;28;20470;-87
2021/07/11 10:40:23;;;;;;;1999.90;999.90;;;34.30;42.70;;;;;;5033007;28;20044;-85
2021/07/11 10:42:51;;;;;;;1999.90;999.90;;;34.20;42.20;;;;;;5035305;28;20028;-85
2021/07/11 10:45:18;;;;;;;1999.90;999.90;;;34.20;41.90;;;;;;5031409;28;20383;-85
2021/07/11 10:47:44;;;;;;;1999.90;999.90;;;34.20;42.60;;;;;;5032724;28;20033;-86
2021/07/11 10:50:28;;;;;;;1999.90;999.90;;;34.10;42.40;;;;;;5039310;28;20064;-86
2021/07/11 10:52:58;;;;;;;1999.90;999.90;;;34.10;42.00;;;;;;5035408;28;20049;-86
2021/07/11 10:55:33;;;;;;;1999.90;999.90;;;34.10;42.00;;;;;;5044147;28;20041;-85
2021/07/11 10:58:09;;;;;;;1999.90;999.90;;;34.20;41.90;;;;;;5038944;28;20482;-87
2021/07/11 11:00:34;;;;;;;1999.90;999.90;;;34.20;41.80;;;;;;5044078;28;20375;-86
2021/07/11 11:03:16;;;;;;;1999.90;999.90;;;34.10;41.50;;;;;;5037628;28;20023;-86
2021/07/11 11:05:42;;;;;;;1999.90;999.90;;;34.20;41.70;;;;;;5034219;28;20032;-85
2021/07/11 11:08:13;;;;;;;1999.90;999.90;;;34.30;41.80;;;;;;5027213;28;20414;-86
2021/07/11 11:10:40;;;;;;;1999.90;999.90;;;34.30;41.40;;;;;;5035532;28;20020;-86
2021/07/11 11:13:17;;;;;;;1999.90;999.90;;;34.40;41.70;;;;;;5043015;28;20029;-88
2021/07/11 11:15:54;;;;;;;1999.90;999.90;;;34.50;41.60;;;;;;5038400;28;20453;-86
2021/07/11 11:18:22;;;;;;;1999.90;999.90;;;34.60;41.30;;;;;;5025903;28;20037;-86
2021/07/11 11:20:59;;;;;;;1999.90;999.90;;;34.60;41.70;;;;;;5032233;28;20040;-85
2021/07/11 11:23:31;;;;;;;1999.90;999.90;;;34.70;42.00;;;;;;5051739;28;20017;-86
2021/07/11 11:25:56;;;;;;;1999.90;999.90;;;34.70;41.40;;;;;;5038731;28;20049;-85
2021/07/11 11:28:27;;;;;;;1999.90;999.90;;;34.60;41.50;;;;;;5034503;28;20505;-86
2021/07/11 11:31:08;;;;;;;1999.90;999.90;;;34.70;40.60;;;;;;5035709;28;20112;-86
2021/07/11 11:34:06;;;;;;;1999.90;999.90;;;34.60;40.80;;;;;;5032453;28;20499;-86
2021/07/11 11:36:44;;;;;;;1999.90;999.90;;;34.70;41.40;;;;;;5028899;28;20539;-87
2021/07/11 11:39:13;;;;;;;1999.90;999.90;;;34.70;40.80;;;;;;5027747;28;20030;-88
2021/07/11 11:41:39;;;;;;;1999.90;999.90;;;34.80;41.40;;;;;;5035524;28;20345;-88
2021/07/11 11:44:15;;;;;;;1999.90;999.90;;;34.80;41.60;;;;;;5031756;28;20026;-87
2021/07/11 11:46:45;;;;;;;1999.90;999.90;;;35.00;41.60;;;;;;5037207;28;20017;-86
2021/07/11 11:49:15;;;;;;;1999.90;999.90;;;35.00;41.70;;;;;;5031310;28;20033;-86
2021/07/11 11:51:44;;;;;;;1999.90;999.90;;;35.10;41.50;;;;;;5033174;28;20532;-85
2021/07/11 11:54:10;;;;;;;1999.90;999.90;;;35.20;41.60;;;;;;5041337;28;20056;-87
2021/07/11 11:56:37;;;;;;;1999.90;999.90;;;35.20;41.30;;;;;;5035221;28;20029;-86
2021/07/11 11:59:05;;;;;;;1999.90;999.90;;;35.20;41.20;;;;;;5034167;28;20033;-85
2021/07/11 12:01:36;;;;;;;1999.90;999.90;;;35.30;41.20;;;;;;5030245;28;20053;-87
2021/07/11 12:04:16;;;;;;;1999.90;999.90;;;35.30;41.10;;;;;;5036954;28;20021;-86
2021/07/11 12:06:46;;;;;;;1999.90;999.90;;;35.30;41.20;;;;;;5029431;28;20034;-86
2021/07/11 12:09:12;;;;;;;1999.90;999.90;;;35.30;41.60;;;;;;5041942;28;20043;-85